createdAt,value
2019-03-28T00:01:03.804Z,59.80
2019-03-28T00:03:33.912Z,60.40
2019-03-28T00:06:04.053Z,60.80
2019-03-28T00:08:34.193Z,61.20
2019-03-28T00:11:04.420Z,61.60
2019-03-28T00:13:36.569Z,62.40
2019-03-28T00:16:06.711Z,62.90
2019-03-28T00:18:36.847Z,63.50
2019-03-28T00:21:07.002Z,64.00
2019-03-28T00:23:38.783Z,64.40
2019-03-28T00:26:08.849Z,64.90
2019-03-28T00:28:38.832Z,65.20
2019-03-28T00:31:09.466Z,66.30
2019-03-28T00:33:39.555Z,66.80
2019-03-28T00:36:09.704Z,67.20
2019-03-28T00:38:39.926Z,67.40
2019-03-28T00:41:10.096Z,68.10
2019-03-28T00:43:40.200Z,68.30
2019-03-28T00:46:10.324Z,68.40
2019-03-28T00:48:40.330Z,68.50
2019-03-28T00:51:10.614Z,68.80
2019-03-28T00:53:40.628Z,69.00
2019-03-28T00:56:10.765Z,69.00
2019-03-28T00:58:40.985Z,69.20
2019-03-28T01:01:11.207Z,69.20
2019-03-28T01:03:41.415Z,70.20
2019-03-28T01:06:11.702Z,70.80
2019-03-28T01:08:41.887Z,71.20
2019-03-28T01:11:12.169Z,70.80
2019-03-28T01:13:43.201Z,71.00
2019-03-28T01:16:13.767Z,71.20
2019-03-28T01:18:45.120Z,71.00
2019-03-28T01:21:16.261Z,71.00
2019-03-28T01:23:46.570Z,70.90
2019-03-28T01:26:16.723Z,71.40
2019-03-28T01:28:46.930Z,71.60
2019-03-28T01:31:17.072Z,71.40
2019-03-28T01:33:47.067Z,71.50
2019-03-28T01:36:17.212Z,71.70
2019-03-28T01:38:47.338Z,72.40
2019-03-28T01:41:17.497Z,74.00
2019-03-28T01:43:47.666Z,74.80
2019-03-28T01:46:17.686Z,74.60
2019-03-28T01:48:47.785Z,74.80
2019-03-28T01:51:20.093Z,74.80
2019-03-28T01:53:50.223Z,74.60
2019-03-28T01:56:20.313Z,73.80
2019-03-28T01:58:50.390Z,73.30
2019-03-28T02:01:20.541Z,73.20
2019-03-28T02:03:50.624Z,73.20
2019-03-28T02:06:20.692Z,73.70
2019-03-28T02:08:50.839Z,74.20
2019-03-28T02:11:20.989Z,74.50
2019-03-28T02:13:51.143Z,75.10
2019-03-28T02:16:21.504Z,75.00
2019-03-28T02:18:51.853Z,74.50
2019-03-28T02:21:22.001Z,73.70
2019-03-28T02:23:52.298Z,73.70
2019-03-28T02:26:22.365Z,73.90
2019-03-28T02:28:52.611Z,74.00
2019-03-28T02:31:22.825Z,74.10
2019-03-28T02:33:53.049Z,73.90
2019-03-28T02:36:24.198Z,73.80
2019-03-28T02:38:54.427Z,73.80
2019-03-28T02:41:25.535Z,73.70
2019-03-28T02:43:55.625Z,73.50
2019-03-28T02:46:25.853Z,73.50
2019-03-28T02:48:56.023Z,73.40
2019-03-28T02:51:26.162Z,73.40
2019-03-28T02:53:56.380Z,73.80
2019-03-28T02:56:26.533Z,73.90
2019-03-28T02:58:56.744Z,74.10
2019-03-28T03:01:30.101Z,75.00
2019-03-28T03:03:58.800Z,74.40
2019-03-28T03:06:28.948Z,74.70
2019-03-28T03:08:59.627Z,76.20
2019-03-28T03:11:29.841Z,75.20
2019-03-28T03:13:59.984Z,74.90
2019-03-28T03:16:30.198Z,74.80
2019-03-28T03:19:00.289Z,75.50
2019-03-28T03:21:30.588Z,75.70
2019-03-28T03:24:00.655Z,76.30
2019-03-28T03:26:30.755Z,77.00
2019-03-28T03:29:00.973Z,77.00
2019-03-28T03:31:31.192Z,76.50
2019-03-28T03:34:01.349Z,76.30
2019-03-28T03:36:31.502Z,76.30
2019-03-28T03:39:01.638Z,76.40
2019-03-28T03:41:32.224Z,76.30
2019-03-28T03:44:02.305Z,75.70
2019-03-28T03:46:32.509Z,75.40
2019-03-28T03:49:02.670Z,75.80
2019-03-28T03:51:32.819Z,75.70
2019-03-28T03:54:03.010Z,75.50
2019-03-28T03:56:33.151Z,74.60
2019-03-28T03:59:03.377Z,74.40
2019-03-28T04:01:33.464Z,73.70
2019-03-28T04:04:03.607Z,72.90
2019-03-28T04:06:33.618Z,72.90
2019-03-28T04:09:05.384Z,71.90
2019-03-28T04:11:35.672Z,71.80
2019-03-28T04:14:05.885Z,71.70
2019-03-28T04:16:36.137Z,71.30
2019-03-28T04:19:06.360Z,71.00
2019-03-28T04:21:36.367Z,70.50
2019-03-28T04:24:06.591Z,70.00
2019-03-28T04:26:36.674Z,69.70
2019-03-28T04:29:06.823Z,69.40
2019-03-28T04:31:36.967Z,69.30
2019-03-28T04:34:08.744Z,69.20
2019-03-28T04:36:38.814Z,68.90
2019-03-28T04:39:09.061Z,68.80
2019-03-28T04:41:39.336Z,68.80
2019-03-28T04:44:09.549Z,68.70
2019-03-28T04:46:39.707Z,69.20
2019-03-28T04:49:09.798Z,68.90
2019-03-28T04:51:39.932Z,68.70
2019-03-28T04:54:10.048Z,68.80
2019-03-28T04:56:40.158Z,68.70
2019-03-28T04:59:10.300Z,68.80
2019-03-28T05:01:40.439Z,68.70
2019-03-28T05:04:10.666Z,69.00
2019-03-28T05:06:40.877Z,69.90
2019-03-28T05:09:10.953Z,70.00
2019-03-28T05:11:41.022Z,70.20
2019-03-28T05:14:11.380Z,70.00
2019-03-28T05:16:41.708Z,70.30
2019-03-28T05:19:11.805Z,70.50
2019-03-28T05:21:41.819Z,70.70
2019-03-28T05:24:11.892Z,70.50
2019-03-28T05:26:41.996Z,70.20
2019-03-28T05:29:12.047Z,70.00
2019-03-28T05:31:42.133Z,69.90
2019-03-28T05:34:12.258Z,70.00
2019-03-28T05:36:42.485Z,69.70
2019-03-28T05:39:12.616Z,69.20
2019-03-28T05:41:42.787Z,69.10
2019-03-28T05:44:12.941Z,68.80
2019-03-28T05:46:43.072Z,68.20
2019-03-28T05:49:13.232Z,67.70
2019-03-28T05:51:43.369Z,67.70
2019-03-28T05:54:13.597Z,66.80
2019-03-28T05:56:43.660Z,66.20
2019-03-28T05:59:13.721Z,65.70
2019-03-28T06:01:43.780Z,65.40
2019-03-28T06:04:14.001Z,65.20
2019-03-28T06:06:44.311Z,64.90
2019-03-28T06:09:14.820Z,64.50
2019-03-28T06:11:44.815Z,64.40
2019-03-28T06:14:15.100Z,63.80
2019-03-28T06:16:45.303Z,64.00
2019-03-28T06:19:15.386Z,63.40
2019-03-28T06:21:45.464Z,62.40
2019-03-28T06:24:15.533Z,62.10
2019-03-28T06:26:45.688Z,62.70
2019-03-28T06:29:23.656Z,60.50
2019-03-28T06:31:55.186Z,60.10
2019-03-28T06:34:19.303Z,59.30
2019-03-28T06:36:49.393Z,58.70
2019-03-28T06:39:19.523Z,58.90
2019-03-28T06:41:49.674Z,57.70
2019-03-28T06:44:20.890Z,57.20
2019-03-28T06:46:51.070Z,58.30
2019-03-28T06:49:21.195Z,56.70
2019-03-28T06:51:51.229Z,56.80
2019-03-28T06:54:24.094Z,55.60
2019-03-28T06:56:53.050Z,56.30
2019-03-28T06:59:36.290Z,55.60
2019-03-28T07:01:55.353Z,55.80
2019-03-28T07:04:25.433Z,55.20
2019-03-28T07:06:55.857Z,55.90
2019-03-28T07:09:26.080Z,54.20
2019-03-28T07:11:56.377Z,54.50
2019-03-28T07:14:29.487Z,53.40
2019-03-28T07:16:58.814Z,52.00
2019-03-28T07:19:28.969Z,51.70
2019-03-28T07:21:59.054Z,51.80
2019-03-28T07:24:29.173Z,50.80
2019-03-28T07:26:59.184Z,50.70
2019-03-28T07:29:29.266Z,51.00
2019-03-28T07:31:59.427Z,51.70
2019-03-28T07:34:29.459Z,50.40
2019-03-28T07:36:59.745Z,49.50
2019-03-28T07:39:29.755Z,49.90
2019-03-28T07:41:59.909Z,49.50
2019-03-28T07:44:30.047Z,49.50
2019-03-28T07:47:00.117Z,49.30
2019-03-28T07:49:30.273Z,49.40
2019-03-28T07:52:01.438Z,49.00
2019-03-28T07:54:31.754Z,50.80
2019-03-28T07:57:01.932Z,49.10
2019-03-28T07:59:32.066Z,48.10
2019-03-28T08:02:02.241Z,47.60
2019-03-28T08:04:32.368Z,47.70
2019-03-28T08:07:02.621Z,46.60
2019-03-28T08:09:36.873Z,46.80
2019-03-28T08:12:04.898Z,46.80
2019-03-28T08:14:35.346Z,47.10
2019-03-28T08:17:06.649Z,48.00
2019-03-28T08:19:37.965Z,47.00
2019-03-28T08:22:08.441Z,46.30
2019-03-28T08:24:38.713Z,45.50
2019-03-28T08:27:09.027Z,46.30
2019-03-28T08:29:39.119Z,46.00
2019-03-28T08:32:13.447Z,45.50
2019-03-28T08:34:42.668Z,45.90
2019-03-28T08:37:12.753Z,44.90
2019-03-28T08:39:44.658Z,44.70
2019-03-28T08:42:14.919Z,45.00
2019-03-28T08:44:44.941Z,44.00
2019-03-28T08:47:15.089Z,43.60
2019-03-28T08:49:45.248Z,43.20
2019-03-28T08:52:15.492Z,43.60
2019-03-28T08:54:45.539Z,42.60
2019-03-28T08:57:15.821Z,42.30
2019-03-28T08:59:45.978Z,43.60
2019-03-28T09:02:16.056Z,45.00
2019-03-28T09:04:46.214Z,44.20
2019-03-28T09:07:17.494Z,43.10
2019-03-28T09:09:47.885Z,41.80
2019-03-28T09:12:18.100Z,42.10
2019-03-28T09:14:48.314Z,41.70
2019-03-28T09:17:18.402Z,42.50
2019-03-28T09:19:49.376Z,43.00
2019-03-28T09:22:19.587Z,42.50
2019-03-28T09:24:49.724Z,43.40
2019-03-28T09:27:19.993Z,42.00
2019-03-28T09:29:50.337Z,43.20
2019-03-28T09:32:20.467Z,42.80
2019-03-28T09:34:51.062Z,41.90
2019-03-28T09:37:21.272Z,42.50
2019-03-28T09:39:51.440Z,43.80
2019-03-28T09:42:21.564Z,42.10
2019-03-28T09:44:51.638Z,42.10
2019-03-28T09:47:21.695Z,41.60
2019-03-28T09:49:51.848Z,41.70
2019-03-28T09:52:21.953Z,42.00
2019-03-28T09:54:52.108Z,44.50
2019-03-28T09:57:22.339Z,42.10
2019-03-28T09:59:52.489Z,42.30
2019-03-28T10:02:22.649Z,41.50
2019-03-28T10:04:52.809Z,42.60
2019-03-28T10:07:23.044Z,41.60
2019-03-28T10:09:53.536Z,42.30
2019-03-28T10:12:23.682Z,41.80
2019-03-28T10:14:53.840Z,42.10
2019-03-28T10:17:23.849Z,42.00
2019-03-28T10:19:54.139Z,42.90
2019-03-28T10:22:24.440Z,43.00
2019-03-28T10:24:54.597Z,41.60
2019-03-28T10:27:24.739Z,41.90
2019-03-28T10:29:54.891Z,41.50
2019-03-28T10:32:25.091Z,42.10
2019-03-28T10:34:55.233Z,40.40
2019-03-28T10:37:25.455Z,41.30
2019-03-28T10:39:55.619Z,39.90
2019-03-28T10:42:25.761Z,41.20
2019-03-28T10:44:55.921Z,41.00
2019-03-28T10:47:27.298Z,41.30
2019-03-28T10:49:57.598Z,41.30
2019-03-28T10:52:27.750Z,40.20
2019-03-28T10:54:57.971Z,42.70
2019-03-28T10:57:30.307Z,40.50
2019-03-28T10:59:59.893Z,39.70
2019-03-28T11:02:30.112Z,39.70
2019-03-28T11:05:00.410Z,40.10
2019-03-28T11:07:30.445Z,38.60
2019-03-28T11:10:01.718Z,39.50
2019-03-28T11:12:31.866Z,38.20
2019-03-28T11:15:02.124Z,38.40
2019-03-28T11:17:32.358Z,38.70
2019-03-28T11:20:02.504Z,38.50
2019-03-28T11:22:32.601Z,37.70
2019-03-28T11:25:02.680Z,38.90
2019-03-28T11:27:32.899Z,38.80
2019-03-28T11:30:03.226Z,39.00
2019-03-28T11:32:35.922Z,38.80
2019-03-28T11:35:07.298Z,38.90
2019-03-28T11:37:37.833Z,39.70
2019-03-28T11:40:09.412Z,41.50
2019-03-28T11:42:40.907Z,38.90
2019-03-28T11:45:12.511Z,38.10
2019-03-28T11:47:42.692Z,39.30
2019-03-28T11:50:13.412Z,38.20
2019-03-28T11:52:43.595Z,38.10
2019-03-28T11:55:13.998Z,39.80
2019-03-28T11:57:45.907Z,41.40
2019-03-28T12:00:18.143Z,40.20
2019-03-28T12:02:48.351Z,38.60
2019-03-28T12:05:18.426Z,37.50
2019-03-28T12:07:48.583Z,37.80
2019-03-28T12:10:18.739Z,38.70
2019-03-28T12:12:48.830Z,38.60
2019-03-28T12:15:18.985Z,37.50
2019-03-28T12:17:49.057Z,37.60
2019-03-28T12:20:19.144Z,38.40
2019-03-28T12:22:49.225Z,40.60
2019-03-28T12:25:19.335Z,39.10
2019-03-28T12:27:49.480Z,37.80
2019-03-28T12:30:19.944Z,42.00
2019-03-28T12:32:50.096Z,39.20
2019-03-28T12:35:20.379Z,37.30
2019-03-28T12:37:50.543Z,39.50
2019-03-28T12:40:20.759Z,36.70
2019-03-28T12:42:50.918Z,37.90
2019-03-28T12:45:21.078Z,37.70
2019-03-28T12:47:51.262Z,39.60
2019-03-28T12:50:21.405Z,42.10
2019-03-28T12:52:51.501Z,38.70
2019-03-28T12:55:21.723Z,38.20
2019-03-28T12:57:51.806Z,37.80
2019-03-28T13:00:30.505Z,42.90
2019-03-28T13:03:00.594Z,41.30
2019-03-28T13:05:30.829Z,37.40
2019-03-28T13:08:01.041Z,36.20
2019-03-28T13:10:31.200Z,35.70
2019-03-28T13:13:01.405Z,37.20
2019-03-28T13:15:31.638Z,36.50
2019-03-28T13:18:01.720Z,35.70
2019-03-28T13:20:31.873Z,38.40
2019-03-28T13:23:02.083Z,36.50
2019-03-28T13:25:33.236Z,37.80
2019-03-28T13:28:03.461Z,37.50
2019-03-28T13:30:33.545Z,38.80
2019-03-28T13:33:03.769Z,39.50
2019-03-28T13:35:35.201Z,37.60
2019-03-28T13:38:05.710Z,35.40
2019-03-28T13:40:35.857Z,37.40
2019-03-28T13:43:06.090Z,38.50
2019-03-28T13:45:36.235Z,38.10
2019-03-28T13:48:06.399Z,37.30
2019-03-28T13:50:36.626Z,36.10
2019-03-28T13:53:06.792Z,34.80
2019-03-28T13:55:37.018Z,36.00
2019-03-28T13:58:07.117Z,35.90
2019-03-28T14:00:37.279Z,36.70
2019-03-28T14:03:07.498Z,35.80
2019-03-28T14:05:37.672Z,37.60
2019-03-28T14:08:07.887Z,34.50
2019-03-28T14:10:38.945Z,36.70
2019-03-28T14:13:09.246Z,36.00
2019-03-28T14:15:39.395Z,38.30
2019-03-28T14:18:09.540Z,36.30
2019-03-28T14:20:39.702Z,35.70
2019-03-28T14:23:09.768Z,37.40
2019-03-28T14:25:39.896Z,36.50
2019-03-28T14:28:10.102Z,34.90
2019-03-28T14:30:41.019Z,34.10
2019-03-28T14:33:15.413Z,33.60
2019-03-28T14:35:44.065Z,34.70
2019-03-28T14:38:14.207Z,36.00
2019-03-28T14:40:44.299Z,36.20
2019-03-28T14:43:15.451Z,34.10
2019-03-28T14:45:45.620Z,35.30
2019-03-28T14:48:15.848Z,36.90
2019-03-28T14:50:46.171Z,35.90
2019-03-28T14:53:16.350Z,34.80
2019-03-28T14:55:46.695Z,35.90
2019-03-28T14:58:16.857Z,35.60
2019-03-28T15:00:48.678Z,34.70
2019-03-28T15:03:26.440Z,34.90
2019-03-28T15:05:50.621Z,35.20
2019-03-28T15:08:23.970Z,35.00
2019-03-28T15:10:54.053Z,36.70
2019-03-28T15:13:24.203Z,39.40
2019-03-28T15:15:54.351Z,36.30
2019-03-28T15:18:24.501Z,35.40
2019-03-28T15:20:54.833Z,34.70
2019-03-28T15:23:24.984Z,35.20
2019-03-28T15:25:55.208Z,33.90
2019-03-28T15:28:25.360Z,35.00
2019-03-28T15:30:55.783Z,37.10
2019-03-28T15:33:38.621Z,35.70
2019-03-28T15:35:57.844Z,34.40
2019-03-28T15:38:31.165Z,36.50
2019-03-28T15:40:59.692Z,35.20
2019-03-28T15:43:29.794Z,34.90
2019-03-28T15:46:01.413Z,36.10
2019-03-28T15:48:31.582Z,36.50
2019-03-28T15:51:01.806Z,36.40
2019-03-28T15:53:31.893Z,37.50
2019-03-28T15:56:02.035Z,37.70
2019-03-28T15:58:32.286Z,36.10
2019-03-28T16:01:02.348Z,36.10
2019-03-28T16:03:32.440Z,35.90
2019-03-28T16:06:02.511Z,35.70
2019-03-28T16:08:32.596Z,35.30
2019-03-28T16:11:02.666Z,35.00
2019-03-28T16:13:32.854Z,35.40
2019-03-28T16:16:03.073Z,37.30
2019-03-28T16:18:33.227Z,38.80
2019-03-28T16:21:03.396Z,39.60
2019-03-28T16:23:33.643Z,37.70
2019-03-28T16:26:03.799Z,37.70
2019-03-28T16:28:33.869Z,38.10
2019-03-28T16:31:04.026Z,37.70
2019-03-28T16:33:34.166Z,37.40
2019-03-28T16:36:04.353Z,38.40
2019-03-28T16:38:34.569Z,37.80
2019-03-28T16:41:04.730Z,39.40
2019-03-28T16:43:34.880Z,38.60
2019-03-28T16:46:07.801Z,37.50
2019-03-28T16:48:48.847Z,36.10
2019-03-28T16:51:25.932Z,34.60
2019-03-28T16:53:56.686Z,32.80
2019-03-28T16:56:32.333Z,32.30
2019-03-28T16:59:04.658Z,31.90
2019-03-28T17:01:34.911Z,31.90
2019-03-28T17:04:05.111Z,32.70
2019-03-28T17:06:35.369Z,34.20
2019-03-28T17:09:07.502Z,35.60
2019-03-28T17:11:37.708Z,37.50
2019-03-28T17:14:07.874Z,38.90
2019-03-28T17:16:37.953Z,39.80
2019-03-28T17:19:08.117Z,42.40
2019-03-28T17:21:38.329Z,42.40
2019-03-28T17:24:08.492Z,43.10
2019-03-28T17:26:38.691Z,43.60
2019-03-28T17:29:08.826Z,44.10
2019-03-28T17:31:38.937Z,45.30
2019-03-28T17:34:09.179Z,45.90
2019-03-28T17:36:39.387Z,46.90
2019-03-28T17:39:09.574Z,47.50
2019-03-28T17:41:39.738Z,48.20
2019-03-28T17:44:09.814Z,48.40
2019-03-28T17:46:39.918Z,48.90
2019-03-28T17:49:10.137Z,49.00
2019-03-28T17:51:41.305Z,49.10
2019-03-28T17:54:11.979Z,50.10
2019-03-28T17:56:42.396Z,50.70
2019-03-28T17:59:12.616Z,50.50
2019-03-28T18:01:42.769Z,51.20
2019-03-28T18:04:22.901Z,51.50
2019-03-28T18:06:45.800Z,51.80
2019-03-28T18:09:17.213Z,51.90
2019-03-28T18:11:47.803Z,52.80
2019-03-28T18:14:18.261Z,53.30
2019-03-28T18:16:48.553Z,53.50
2019-03-28T18:19:18.767Z,53.70
2019-03-28T18:22:02.433Z,54.50
2019-03-28T18:24:20.714Z,54.70
2019-03-28T18:26:51.759Z,55.10
2019-03-28T18:29:22.202Z,56.00
2019-03-28T18:31:52.737Z,56.20
2019-03-28T18:34:23.238Z,56.80
2019-03-28T18:36:53.404Z,57.40
2019-03-28T18:39:23.565Z,57.70
2019-03-28T18:41:56.465Z,58.30
2019-03-28T18:44:25.491Z,58.30
2019-03-28T18:46:55.498Z,58.50
2019-03-28T18:49:25.807Z,58.90
2019-03-28T18:51:55.946Z,59.40
2019-03-28T18:54:26.037Z,59.00
2019-03-28T18:56:56.171Z,58.80
2019-03-28T18:59:26.193Z,58.90
2019-03-28T19:01:56.339Z,58.90
2019-03-28T19:04:26.540Z,58.80
2019-03-28T19:06:57.900Z,58.60
2019-03-28T19:09:28.186Z,58.20
2019-03-28T19:11:58.302Z,58.40
2019-03-28T19:14:28.410Z,58.70
2019-03-28T19:16:58.631Z,58.30
2019-03-28T19:19:39.271Z,57.90
2019-03-28T19:22:00.547Z,58.70
2019-03-28T19:24:30.769Z,59.30
2019-03-28T19:27:01.100Z,59.80
2019-03-28T19:29:31.296Z,60.30
2019-03-28T19:32:01.430Z,60.50
2019-03-28T19:34:32.672Z,60.60
2019-03-28T19:37:03.248Z,60.80
2019-03-28T19:39:34.354Z,61.30
2019-03-28T19:42:04.936Z,59.90
2019-03-28T19:44:36.601Z,59.60
2019-03-28T19:47:06.712Z,59.70
2019-03-28T19:49:36.919Z,59.60
2019-03-28T19:52:07.136Z,59.90
2019-03-28T19:54:37.287Z,60.60
2019-03-28T19:57:07.370Z,60.90
2019-03-28T19:59:37.635Z,60.90
2019-03-28T20:02:08.042Z,60.70
2019-03-28T20:04:39.381Z,60.80
2019-03-28T20:07:20.890Z,60.80
2019-03-28T20:09:41.313Z,61.30
2019-03-28T20:12:11.492Z,61.70
2019-03-28T20:14:41.802Z,62.10
2019-03-28T20:17:11.953Z,62.40
2019-03-28T20:19:42.110Z,62.10
2019-03-28T20:22:12.330Z,61.50
2019-03-28T20:24:42.559Z,61.20
2019-03-28T20:27:14.161Z,61.20
2019-03-28T20:29:44.393Z,61.00
2019-03-28T20:32:14.615Z,60.90
2019-03-28T20:34:44.808Z,60.90
2019-03-28T20:37:15.017Z,60.70
2019-03-28T20:39:45.303Z,60.20
2019-03-28T20:42:15.381Z,60.00
2019-03-28T20:44:45.605Z,59.70
2019-03-28T20:47:15.833Z,59.70
2019-03-28T20:49:46.782Z,60.30
2019-03-28T20:52:17.273Z,59.60
2019-03-28T20:54:47.418Z,59.70
2019-03-28T20:57:17.572Z,59.60
2019-03-28T20:59:47.726Z,59.70
2019-03-28T21:02:17.884Z,59.70
2019-03-28T21:04:48.012Z,59.90
2019-03-28T21:07:20.354Z,60.00
2019-03-28T21:09:50.668Z,59.90
2019-03-28T21:12:20.757Z,60.40
2019-03-28T21:14:50.832Z,60.20
2019-03-28T21:17:21.067Z,60.20
2019-03-28T21:19:51.208Z,60.00
2019-03-28T21:22:21.373Z,60.80
2019-03-28T21:24:51.534Z,60.40
2019-03-28T21:27:21.696Z,60.80
2019-03-28T21:29:51.839Z,61.00
2019-03-28T21:32:22.088Z,61.10
2019-03-28T21:34:52.197Z,60.90
2019-03-28T21:37:22.295Z,60.60
2019-03-28T21:39:52.378Z,60.50
2019-03-28T21:42:22.448Z,59.90
2019-03-28T21:44:52.605Z,59.80
2019-03-28T21:47:22.744Z,59.90
2019-03-28T21:49:52.898Z,59.80
2019-03-28T21:52:23.044Z,59.80
2019-03-28T21:54:53.206Z,59.80
2019-03-28T21:57:23.488Z,59.70
2019-03-28T21:59:53.654Z,59.60
2019-03-28T22:02:24.759Z,59.80
2019-03-28T22:04:54.998Z,59.70
2019-03-28T22:07:25.211Z,59.50
2019-03-28T22:09:55.314Z,59.70
2019-03-28T22:12:25.461Z,59.70
2019-03-28T22:14:55.691Z,59.50
2019-03-28T22:17:27.161Z,59.50
2019-03-28T22:19:57.454Z,59.30
2019-03-28T22:22:28.199Z,59.40
2019-03-28T22:24:58.959Z,59.70
2019-03-28T22:27:29.035Z,59.70
2019-03-28T22:29:59.178Z,59.50
2019-03-28T22:32:29.336Z,59.40
2019-03-28T22:34:59.916Z,59.30
2019-03-28T22:37:30.253Z,59.30
2019-03-28T22:40:00.537Z,59.30
2019-03-28T22:42:30.781Z,59.20
2019-03-28T22:45:00.861Z,59.30
2019-03-28T22:47:34.830Z,59.00
2019-03-28T22:50:04.422Z,59.00
2019-03-28T22:52:34.582Z,58.90
2019-03-28T22:55:07.661Z,58.80
2019-03-28T22:57:37.824Z,58.70
2019-03-28T23:00:12.653Z,58.70
2019-03-28T23:02:44.319Z,58.90
2019-03-28T23:05:14.877Z,59.10
2019-03-28T23:07:45.035Z,59.00
2019-03-28T23:10:16.956Z,59.10
2019-03-28T23:12:47.412Z,59.00
2019-03-28T23:15:17.665Z,59.00
2019-03-28T23:17:47.752Z,59.10
2019-03-28T23:20:17.910Z,59.20
2019-03-28T23:22:48.000Z,59.50
2019-03-28T23:25:18.226Z,59.60
2019-03-28T23:27:48.377Z,59.70
2019-03-28T23:30:18.529Z,59.50
2019-03-28T23:32:48.757Z,59.60
2019-03-28T23:35:18.820Z,59.50
2019-03-28T23:37:48.972Z,59.40
2019-03-28T23:40:19.115Z,59.30
2019-03-28T23:42:49.278Z,59.40
2019-03-28T23:45:19.794Z,59.40
2019-03-28T23:47:50.137Z,59.50
2019-03-28T23:50:20.214Z,59.50
2019-03-28T23:52:50.373Z,59.90
2019-03-28T23:55:20.602Z,59.90
2019-03-28T23:57:50.814Z,60.20
